sensor_id;sensor_type;location;lat;lon;timestamp;P1;durP1;ratioP1;P2;durP2;ratioP2
16430;SDS011;8325;49.284;7.238;2023-08-06T04:03:14;2.95;;;0.77;;
16430;SDS011;8325;49.284;7.238;2023-08-06T04:07:26;3.00;;;0.85;;
16430;SDS011;8325;49.284;7.238;2023-08-06T04:11:38;4.13;;;0.73;;
16430;SDS011;8325;49.284;7.238;2023-08-06T04:15:50;4.70;;;0.90;;
16430;SDS011;8325;49.284;7.238;2023-08-06T04:20:03;2.00;;;0.93;;
16430;SDS011;8325;49.284;7.238;2023-08-06T04:24:15;1.75;;;0.60;;
16430;SDS011;8325;49.284;7.238;2023-08-06T04:28:27;1.70;;;0.60;;
16430;SDS011;8325;49.284;7.238;2023-08-06T04:32:39;1.08;;;0.63;;
16430;SDS011;8325;49.284;7.238;2023-08-06T04:36:51;1.27;;;0.85;;
16430;SDS011;8325;49.284;7.238;2023-08-06T04:41:03;2.30;;;0.85;;
16430;SDS011;8325;49.284;7.238;2023-08-06T04:45:15;1.73;;;0.65;;
16430;SDS011;8325;49.284;7.238;2023-08-06T04:49:27;2.65;;;0.73;;
16430;SDS011;8325;49.284;7.238;2023-08-06T04:53:39;1.67;;;0.82;;
16430;SDS011;8325;49.284;7.238;2023-08-06T04:57:50;1.08;;;0.80;;
16430;SDS011;8325;49.284;7.238;2023-08-06T05:02:02;1.23;;;0.80;;
16430;SDS011;8325;49.284;7.238;2023-08-06T05:06:14;1.00;;;0.75;;
16430;SDS011;8325;49.284;7.238;2023-08-06T05:10:25;2.45;;;0.77;;
16430;SDS011;8325;49.284;7.238;2023-08-06T05:14:37;0.90;;;0.70;;
16430;SDS011;8325;49.284;7.238;2023-08-06T05:18:49;0.60;;;0.60;;
16430;SDS011;8325;49.284;7.238;2023-08-06T05:23:00;0.75;;;0.70;;
16430;SDS011;8325;49.284;7.238;2023-08-06T05:27:12;1.15;;;0.60;;
16430;SDS011;8325;49.284;7.238;2023-08-06T05:31:23;0.60;;;0.50;;
16430;SDS011;8325;49.284;7.238;2023-08-06T05:35:35;0.60;;;0.60;;
16430;SDS011;8325;49.284;7.238;2023-08-06T05:39:47;0.52;;;0.50;;
16430;SDS011;8325;49.284;7.238;2023-08-06T05:43:58;1.13;;;0.50;;
16430;SDS011;8325;49.284;7.238;2023-08-06T05:48:13;0.32;;;0.32;;
16430;SDS011;8325;49.284;7.238;2023-08-06T05:52:25;0.40;;;0.40;;
16430;SDS011;8325;49.284;7.238;2023-08-06T05:56:36;0.50;;;0.40;;
16430;SDS011;8325;49.284;7.238;2023-08-06T06:00:48;1.20;;;0.50;;
16430;SDS011;8325;49.284;7.238;2023-08-06T06:04:59;0.47;;;0.47;;
16430;SDS011;8325;49.284;7.238;2023-08-06T06:09:11;2.13;;;0.77;;
16430;SDS011;8325;49.284;7.238;2023-08-06T06:13:22;0.68;;;0.63;;
16430;SDS011;8325;49.284;7.238;2023-08-06T06:17:34;0.98;;;0.70;;
16430;SDS011;8325;49.284;7.238;2023-08-06T06:21:46;1.10;;;0.70;;
16430;SDS011;8325;49.284;7.238;2023-08-06T06:25:57;0.60;;;0.60;;
16430;SDS011;8325;49.284;7.238;2023-08-06T06:30:09;0.40;;;0.40;;
16430;SDS011;8325;49.284;7.238;2023-08-06T06:34:23;0.38;;;0.30;;
16430;SDS011;8325;49.284;7.238;2023-08-06T06:38:34;0.50;;;0.40;;
16430;SDS011;8325;49.284;7.238;2023-08-06T06:42:46;0.43;;;0.40;;
16430;SDS011;8325;49.284;7.238;2023-08-06T06:46:58;0.70;;;0.50;;
16430;SDS011;8325;49.284;7.238;2023-08-06T06:51:10;0.63;;;0.60;;
16430;SDS011;8325;49.284;7.238;2023-08-06T06:55:21;0.73;;;0.63;;
16430;SDS011;8325;49.284;7.238;2023-08-06T06:59:33;1.60;;;0.80;;
16430;SDS011;8325;49.284;7.238;2023-08-06T07:03:45;0.88;;;0.70;;
16430;SDS011;8325;49.284;7.238;2023-08-06T07:07:57;0.90;;;0.70;;
16430;SDS011;8325;49.284;7.238;2023-08-06T07:12:08;0.65;;;0.55;;
16430;SDS011;8325;49.284;7.238;2023-08-06T07:16:20;5.03;;;1.48;;
16430;SDS011;8325;49.284;7.238;2023-08-06T07:20:31;0.75;;;0.68;;
16430;SDS011;8325;49.284;7.238;2023-08-06T07:24:45;0.60;;;0.40;;
16430;SDS011;8325;49.284;7.238;2023-08-06T07:28:56;0.88;;;0.52;;
16430;SDS011;8325;49.284;7.238;2023-08-06T07:33:08;1.65;;;0.50;;
16430;SDS011;8325;49.284;7.238;2023-08-06T07:37:19;0.57;;;0.50;;
16430;SDS011;8325;49.284;7.238;2023-08-06T07:41:31;0.90;;;0.60;;
16430;SDS011;8325;49.284;7.238;2023-08-06T07:45:43;0.77;;;0.68;;
16430;SDS011;8325;49.284;7.238;2023-08-06T07:49:54;0.60;;;0.60;;
16430;SDS011;8325;49.284;7.238;2023-08-06T07:54:06;0.50;;;0.50;;
16430;SDS011;8325;49.284;7.238;2023-08-06T07:58:18;0.85;;;0.50;;
16430;SDS011;8325;49.284;7.238;2023-08-06T08:02:32;0.40;;;0.40;;
16430;SDS011;8325;49.284;7.238;2023-08-06T08:06:43;0.45;;;0.43;;
16430;SDS011;8325;49.284;7.238;2023-08-06T08:10:55;0.30;;;0.30;;
16430;SDS011;8325;49.284;7.238;2023-08-06T08:15:07;0.45;;;0.45;;
16430;SDS011;8325;49.284;7.238;2023-08-06T08:19:19;0.88;;;0.40;;
16430;SDS011;8325;49.284;7.238;2023-08-06T08:23:31;0.70;;;0.40;;
16430;SDS011;8325;49.284;7.238;2023-08-06T08:27:43;0.73;;;0.55;;
16430;SDS011;8325;49.284;7.238;2023-08-06T08:31:55;1.70;;;0.70;;
16430;SDS011;8325;49.284;7.238;2023-08-06T08:36:07;1.27;;;0.93;;
16430;SDS011;8325;49.284;7.238;2023-08-06T08:40:29;0.82;;;0.80;;
16430;SDS011;8325;49.284;7.238;2023-08-06T08:44:44;1.08;;;0.70;;
16430;SDS011;8325;49.284;7.238;2023-08-06T08:48:56;0.88;;;0.85;;
16430;SDS011;8325;49.284;7.238;2023-08-06T08:53:10;0.90;;;0.60;;
16430;SDS011;8325;49.284;7.238;2023-08-06T08:57:23;6.53;;;0.80;;
16430;SDS011;8325;49.284;7.238;2023-08-06T09:01:34;1.00;;;0.73;;
16430;SDS011;8325;49.284;7.238;2023-08-06T09:05:48;0.70;;;0.70;;
16430;SDS011;8325;49.284;7.238;2023-08-06T09:10:03;1.85;;;1.00;;
16430;SDS011;8325;49.284;7.238;2023-08-06T09:14:16;1.05;;;0.90;;
16430;SDS011;8325;49.284;7.238;2023-08-06T09:18:31;1.10;;;1.00;;
16430;SDS011;8325;49.284;7.238;2023-08-06T09:22:43;1.77;;;1.38;;
16430;SDS011;8325;49.284;7.238;2023-08-06T09:26:56;1.45;;;1.33;;
16430;SDS011;8325;49.284;7.238;2023-08-06T09:31:09;1.48;;;1.38;;
16430;SDS011;8325;49.284;7.238;2023-08-06T09:35:21;2.20;;;1.58;;
16430;SDS011;8325;49.284;7.238;2023-08-06T09:39:33;3.35;;;1.50;;
16430;SDS011;8325;49.284;7.238;2023-08-06T09:43:44;2.72;;;1.48;;
16430;SDS011;8325;49.284;7.238;2023-08-06T09:47:56;2.50;;;1.67;;
16430;SDS011;8325;49.284;7.238;2023-08-06T09:52:10;1.75;;;1.40;;
16430;SDS011;8325;49.284;7.238;2023-08-06T09:56:25;1.40;;;1.30;;
16430;SDS011;8325;49.284;7.238;2023-08-06T10:00:37;2.25;;;1.70;;
16430;SDS011;8325;49.284;7.238;2023-08-06T10:04:50;2.50;;;1.45;;
16430;SDS011;8325;49.284;7.238;2023-08-06T10:09:07;3.53;;;1.25;;
16430;SDS011;8325;49.284;7.238;2023-08-06T10:13:19;2.40;;;1.33;;
16430;SDS011;8325;49.284;7.238;2023-08-06T10:17:33;1.58;;;1.20;;
16430;SDS011;8325;49.284;7.238;2023-08-06T10:26:26;2.85;;;2.00;;
16430;SDS011;8325;49.284;7.238;2023-08-06T10:30:42;1.35;;;1.20;;
16430;SDS011;8325;49.284;7.238;2023-08-06T10:34:58;1.67;;;1.50;;
16430;SDS011;8325;49.284;7.238;2023-08-06T10:39:14;2.10;;;1.90;;
16430;SDS011;8325;49.284;7.238;2023-08-06T10:43:41;3.63;;;1.77;;
16430;SDS011;8325;49.284;7.238;2023-08-06T10:47:54;2.45;;;1.73;;
16430;SDS011;8325;49.284;7.238;2023-08-06T10:52:08;2.97;;;1.70;;
16430;SDS011;8325;49.284;7.238;2023-08-06T10:56:20;2.25;;;1.95;;
16430;SDS011;8325;49.284;7.238;2023-08-06T11:00:37;2.97;;;2.20;;
16430;SDS011;8325;49.284;7.238;2023-08-06T11:04:49;1.92;;;1.67;;
16430;SDS011;8325;49.284;7.238;2023-08-06T11:09:01;4.70;;;2.30;;
16430;SDS011;8325;49.284;7.238;2023-08-06T11:13:16;5.18;;;2.47;;
16430;SDS011;8325;49.284;7.238;2023-08-06T11:17:29;5.68;;;2.10;;
16430;SDS011;8325;49.284;7.238;2023-08-06T11:21:43;2.90;;;2.03;;
16430;SDS011;8325;49.284;7.238;2023-08-06T11:25:56;3.58;;;1.80;;
16430;SDS011;8325;49.284;7.238;2023-08-06T11:30:09;2.05;;;1.52;;
16430;SDS011;8325;49.284;7.238;2023-08-06T11:34:22;2.72;;;1.50;;
16430;SDS011;8325;49.284;7.238;2023-08-06T11:38:35;3.13;;;1.70;;
16430;SDS011;8325;49.284;7.238;2023-08-06T11:42:47;1.33;;;1.00;;
16430;SDS011;8325;49.284;7.238;2023-08-06T11:46:59;1.38;;;0.77;;
16430;SDS011;8325;49.284;7.238;2023-08-06T11:51:15;0.60;;;0.60;;
16430;SDS011;8325;49.284;7.238;2023-08-06T11:55:27;1.45;;;0.60;;
16430;SDS011;8325;49.284;7.238;2023-08-06T11:59:39;0.85;;;0.80;;
16430;SDS011;8325;49.284;7.238;2023-08-06T12:03:51;1.77;;;0.70;;
16430;SDS011;8325;49.284;7.238;2023-08-06T12:08:03;0.60;;;0.60;;
16430;SDS011;8325;49.284;7.238;2023-08-06T12:12:15;0.70;;;0.70;;
16430;SDS011;8325;49.284;7.238;2023-08-06T12:16:27;0.80;;;0.80;;
16430;SDS011;8325;49.284;7.238;2023-08-06T12:20:39;0.70;;;0.70;;
16430;SDS011;8325;49.284;7.238;2023-08-06T12:24:51;0.95;;;0.90;;
16430;SDS011;8325;49.284;7.238;2023-08-06T12:29:02;0.90;;;0.90;;
16430;SDS011;8325;49.284;7.238;2023-08-06T12:33:14;1.20;;;1.08;;
16430;SDS011;8325;49.284;7.238;2023-08-06T12:37:25;1.30;;;1.10;;
16430;SDS011;8325;49.284;7.238;2023-08-06T12:41:37;1.40;;;0.85;;
16430;SDS011;8325;49.284;7.238;2023-08-06T12:45:48;1.00;;;0.90;;
16430;SDS011;8325;49.284;7.238;2023-08-06T12:50:00;1.50;;;1.20;;
16430;SDS011;8325;49.284;7.238;2023-08-06T12:54:12;1.15;;;1.00;;
16430;SDS011;8325;49.284;7.238;2023-08-06T12:58:23;3.00;;;1.77;;
16430;SDS011;8325;49.284;7.238;2023-08-06T13:02:35;1.80;;;1.20;;
16430;SDS011;8325;49.284;7.238;2023-08-06T13:06:47;1.38;;;1.20;;
16430;SDS011;8325;49.284;7.238;2023-08-06T13:10:59;2.50;;;1.20;;
16430;SDS011;8325;49.284;7.238;2023-08-06T13:15:10;2.85;;;1.40;;
16430;SDS011;8325;49.284;7.238;2023-08-06T13:19:22;1.17;;;1.15;;
16430;SDS011;8325;49.284;7.238;2023-08-06T13:23:33;1.25;;;1.10;;
16430;SDS011;8325;49.284;7.238;2023-08-06T13:27:45;1.80;;;1.30;;
16430;SDS011;8325;49.284;7.238;2023-08-06T13:31:57;1.75;;;1.20;;
16430;SDS011;8325;49.284;7.238;2023-08-06T13:36:08;1.75;;;1.20;;
16430;SDS011;8325;49.284;7.238;2023-08-06T13:40:20;1.10;;;1.00;;
16430;SDS011;8325;49.284;7.238;2023-08-06T13:44:31;1.25;;;0.90;;
16430;SDS011;8325;49.284;7.238;2023-08-06T13:48:47;1.10;;;1.00;;
16430;SDS011;8325;49.284;7.238;2023-08-06T13:53:02;1.45;;;1.35;;
16430;SDS011;8325;49.284;7.238;2023-08-06T13:57:13;1.77;;;1.20;;
16430;SDS011;8325;49.284;7.238;2023-08-06T14:01:25;1.20;;;0.90;;
16430;SDS011;8325;49.284;7.238;2023-08-06T14:05:56;1.98;;;1.00;;
16430;SDS011;8325;49.284;7.238;2023-08-06T14:10:08;1.38;;;1.15;;
16430;SDS011;8325;49.284;7.238;2023-08-06T14:14:20;0.80;;;0.80;;
16430;SDS011;8325;49.284;7.238;2023-08-06T14:18:38;2.33;;;1.02;;
16430;SDS011;8325;49.284;7.238;2023-08-06T14:22:49;1.48;;;0.65;;
16430;SDS011;8325;49.284;7.238;2023-08-06T14:27:02;1.20;;;0.85;;
16430;SDS011;8325;49.284;7.238;2023-08-06T14:31:15;1.80;;;0.90;;
16430;SDS011;8325;49.284;7.238;2023-08-06T14:35:27;1.15;;;0.80;;
16430;SDS011;8325;49.284;7.238;2023-08-06T14:39:38;1.40;;;0.95;;
16430;SDS011;8325;49.284;7.238;2023-08-06T14:43:50;0.82;;;0.80;;
16430;SDS011;8325;49.284;7.238;2023-08-06T14:48:02;2.08;;;1.00;;
16430;SDS011;8325;49.284;7.238;2023-08-06T14:52:13;1.60;;;1.10;;
16430;SDS011;8325;49.284;7.238;2023-08-06T14:56:25;1.52;;;1.42;;
16430;SDS011;8325;49.284;7.238;2023-08-06T15:00:36;1.92;;;1.10;;
16430;SDS011;8325;49.284;7.238;2023-08-06T15:04:48;3.10;;;0.93;;
16430;SDS011;8325;49.284;7.238;2023-08-06T15:09:01;2.00;;;1.25;;
16430;SDS011;8325;49.284;7.238;2023-08-06T15:13:12;1.75;;;0.90;;
16430;SDS011;8325;49.284;7.238;2023-08-06T15:17:24;0.85;;;0.85;;
16430;SDS011;8325;49.284;7.238;2023-08-06T15:21:38;1.27;;;1.17;;
16430;SDS011;8325;49.284;7.238;2023-08-06T15:25:49;1.35;;;1.13;;
16430;SDS011;8325;49.284;7.238;2023-08-06T15:30:02;1.20;;;1.10;;
16430;SDS011;8325;49.284;7.238;2023-08-06T15:34:16;2.08;;;1.30;;
16430;SDS011;8325;49.284;7.238;2023-08-06T15:38:27;1.70;;;1.30;;
16430;SDS011;8325;49.284;7.238;2023-08-06T15:42:39;1.30;;;1.20;;
16430;SDS011;8325;49.284;7.238;2023-08-06T15:46:51;2.28;;;1.30;;
16430;SDS011;8325;49.284;7.238;2023-08-06T15:51:03;2.78;;;1.33;;
16430;SDS011;8325;49.284;7.238;2023-08-06T15:55:14;2.78;;;1.75;;
16430;SDS011;8325;49.284;7.238;2023-08-06T15:59:27;3.85;;;1.48;;
16430;SDS011;8325;49.284;7.238;2023-08-06T16:03:40;2.85;;;1.50;;
16430;SDS011;8325;49.284;7.238;2023-08-06T16:07:54;2.65;;;1.25;;
16430;SDS011;8325;49.284;7.238;2023-08-06T16:12:06;1.40;;;1.30;;
16430;SDS011;8325;49.284;7.238;2023-08-06T16:16:20;1.65;;;1.20;;
16430;SDS011;8325;49.284;7.238;2023-08-06T16:20:32;2.30;;;1.50;;
16430;SDS011;8325;49.284;7.238;2023-08-06T16:24:44;1.50;;;1.40;;
16430;SDS011;8325;49.284;7.238;2023-08-06T16:28:55;3.53;;;1.85;;
16430;SDS011;8325;49.284;7.238;2023-08-06T16:33:07;4.05;;;1.80;;
16430;SDS011;8325;49.284;7.238;2023-08-06T16:37:19;3.92;;;1.67;;
16430;SDS011;8325;49.284;7.238;2023-08-06T16:41:30;3.15;;;1.70;;
16430;SDS011;8325;49.284;7.238;2023-08-06T16:45:42;3.97;;;1.67;;
16430;SDS011;8325;49.284;7.238;2023-08-06T16:49:53;3.25;;;1.63;;
16430;SDS011;8325;49.284;7.238;2023-08-06T16:54:05;2.13;;;1.60;;
16430;SDS011;8325;49.284;7.238;2023-08-06T16:58:17;2.60;;;1.70;;
16430;SDS011;8325;49.284;7.238;2023-08-06T17:02:28;8.15;;;1.85;;
16430;SDS011;8325;49.284;7.238;2023-08-06T17:06:40;3.40;;;1.65;;
16430;SDS011;8325;49.284;7.238;2023-08-06T17:10:51;2.40;;;1.90;;
16430;SDS011;8325;49.284;7.238;2023-08-06T17:15:03;4.45;;;1.85;;
16430;SDS011;8325;49.284;7.238;2023-08-06T17:19:15;2.53;;;1.60;;
16430;SDS011;8325;49.284;7.238;2023-08-06T17:23:28;2.05;;;1.75;;
16430;SDS011;8325;49.284;7.238;2023-08-06T17:27:40;2.75;;;1.63;;
16430;SDS011;8325;49.284;7.238;2023-08-06T17:31:52;3.33;;;1.52;;
16430;SDS011;8325;49.284;7.238;2023-08-06T17:36:04;1.95;;;1.60;;
16430;SDS011;8325;49.284;7.238;2023-08-06T17:40:15;2.00;;;1.60;;
16430;SDS011;8325;49.284;7.238;2023-08-06T17:44:27;2.88;;;1.55;;
16430;SDS011;8325;49.284;7.238;2023-08-06T17:48:38;4.07;;;1.90;;
16430;SDS011;8325;49.284;7.238;2023-08-06T17:52:50;4.30;;;2.10;;
16430;SDS011;8325;49.284;7.238;2023-08-06T17:57:02;3.10;;;1.90;;
16430;SDS011;8325;49.284;7.238;2023-08-06T18:01:14;2.63;;;1.90;;
16430;SDS011;8325;49.284;7.238;2023-08-06T18:05:25;2.15;;;1.70;;
16430;SDS011;8325;49.284;7.238;2023-08-06T18:09:41;2.55;;;1.63;;
16430;SDS011;8325;49.284;7.238;2023-08-06T18:13:53;2.28;;;1.80;;
16430;SDS011;8325;49.284;7.238;2023-08-06T18:18:05;3.22;;;1.52;;
16430;SDS011;8325;49.284;7.238;2023-08-06T18:22:16;3.75;;;1.67;;
16430;SDS011;8325;49.284;7.238;2023-08-06T18:26:28;3.67;;;1.70;;
16430;SDS011;8325;49.284;7.238;2023-08-06T18:30:41;2.95;;;1.60;;
16430;SDS011;8325;49.284;7.238;2023-08-06T18:34:53;1.83;;;1.35;;
16430;SDS011;8325;49.284;7.238;2023-08-06T18:39:05;2.55;;;1.40;;
16430;SDS011;8325;49.284;7.238;2023-08-06T18:43:16;2.42;;;1.30;;
16430;SDS011;8325;49.284;7.238;2023-08-06T18:47:28;2.95;;;1.58;;
16430;SDS011;8325;49.284;7.238;2023-08-06T18:51:40;3.15;;;1.40;;
16430;SDS011;8325;49.284;7.238;2023-08-06T18:55:52;2.58;;;1.65;;
16430;SDS011;8325;49.284;7.238;2023-08-06T19:00:03;2.38;;;1.40;;
16430;SDS011;8325;49.284;7.238;2023-08-06T19:04:16;3.40;;;1.50;;
16430;SDS011;8325;49.284;7.238;2023-08-06T19:08:27;3.08;;;1.73;;
16430;SDS011;8325;49.284;7.238;2023-08-06T19:12:39;4.75;;;1.65;;
16430;SDS011;8325;49.284;7.238;2023-08-06T19:16:50;3.42;;;1.55;;
16430;SDS011;8325;49.284;7.238;2023-08-06T19:21:03;2.75;;;1.65;;
16430;SDS011;8325;49.284;7.238;2023-08-06T19:25:14;2.00;;;1.40;;
16430;SDS011;8325;49.284;7.238;2023-08-06T19:29:26;3.00;;;1.60;;
16430;SDS011;8325;49.284;7.238;2023-08-06T19:33:38;3.03;;;1.33;;
16430;SDS011;8325;49.284;7.238;2023-08-06T19:37:49;2.70;;;1.65;;
16430;SDS011;8325;49.284;7.238;2023-08-06T19:42:01;4.15;;;1.50;;
16430;SDS011;8325;49.284;7.238;2023-08-06T19:46:13;2.20;;;1.50;;
16430;SDS011;8325;49.284;7.238;2023-08-06T19:50:24;3.10;;;1.60;;
16430;SDS011;8325;49.284;7.238;2023-08-06T19:54:36;2.25;;;1.40;;
16430;SDS011;8325;49.284;7.238;2023-08-06T19:58:47;4.00;;;2.45;;
16430;SDS011;8325;49.284;7.238;2023-08-06T20:03:00;2.05;;;1.23;;
16430;SDS011;8325;49.284;7.238;2023-08-06T20:07:12;3.47;;;1.50;;
16430;SDS011;8325;49.284;7.238;2023-08-06T20:11:24;2.50;;;1.52;;
16430;SDS011;8325;49.284;7.238;2023-08-06T20:15:36;1.70;;;1.27;;
16430;SDS011;8325;49.284;7.238;2023-08-06T20:19:48;2.05;;;1.60;;
16430;SDS011;8325;49.284;7.238;2023-08-06T20:23:59;3.03;;;1.70;;
16430;SDS011;8325;49.284;7.238;2023-08-06T20:28:11;2.58;;;1.40;;
16430;SDS011;8325;49.284;7.238;2023-08-06T20:32:23;2.65;;;1.38;;
16430;SDS011;8325;49.284;7.238;2023-08-06T20:36:35;4.32;;;1.60;;
16430;SDS011;8325;49.284;7.238;2023-08-06T20:40:47;3.38;;;2.10;;
16430;SDS011;8325;49.284;7.238;2023-08-06T20:44:58;1.42;;;1.20;;
16430;SDS011;8325;49.284;7.238;2023-08-06T20:49:10;3.03;;;1.58;;
16430;SDS011;8325;49.284;7.238;2023-08-06T20:53:22;7.00;;;1.85;;
16430;SDS011;8325;49.284;7.238;2023-08-06T20:57:34;2.05;;;1.40;;
16430;SDS011;8325;49.284;7.238;2023-08-06T21:01:45;3.88;;;1.52;;
16430;SDS011;8325;49.284;7.238;2023-08-06T21:06:04;3.25;;;1.52;;
16430;SDS011;8325;49.284;7.238;2023-08-06T21:10:16;4.03;;;1.60;;
16430;SDS011;8325;49.284;7.238;2023-08-06T21:14:28;1.55;;;1.35;;
16430;SDS011;8325;49.284;7.238;2023-08-06T21:18:40;1.95;;;1.33;;
16430;SDS011;8325;49.284;7.238;2023-08-06T21:22:51;4.22;;;1.67;;
16430;SDS011;8325;49.284;7.238;2023-08-06T21:27:03;3.55;;;1.70;;
